sensor_id;sensor_type;location;lat;lon;timestamp;P1;durP1;ratioP1;P2;durP2;ratioP2
40953;SDS011;26686;50.130;8.710;2023-04-24T00:00:50;1.30;;;0.38;;
40953;SDS011;26686;50.130;8.710;2023-04-24T00:05:52;1.60;;;0.57;;
40953;SDS011;26686;50.130;8.710;2023-04-24T00:10:53;4.50;;;1.25;;
40953;SDS011;26686;50.130;8.710;2023-04-24T00:15:55;1.02;;;0.60;;
40953;SDS011;26686;50.130;8.710;2023-04-24T00:20:57;1.70;;;0.73;;
40953;SDS011;26686;50.130;8.710;2023-04-24T00:25:59;1.85;;;0.60;;
40953;SDS011;26686;50.130;8.710;2023-04-24T00:31:01;1.30;;;0.80;;
40953;SDS011;26686;50.130;8.710;2023-04-24T00:36:03;0.98;;;0.60;;
40953;SDS011;26686;50.130;8.710;2023-04-24T00:41:04;2.05;;;0.70;;
40953;SDS011;26686;50.130;8.710;2023-04-24T00:46:06;1.13;;;0.70;;
40953;SDS011;26686;50.130;8.710;2023-04-24T00:51:07;2.00;;;0.70;;
40953;SDS011;26686;50.130;8.710;2023-04-24T00:56:08;2.63;;;0.60;;
40953;SDS011;26686;50.130;8.710;2023-04-24T01:01:11;3.30;;;0.95;;
40953;SDS011;26686;50.130;8.710;2023-04-24T01:06:13;2.20;;;1.15;;
40953;SDS011;26686;50.130;8.710;2023-04-24T01:11:15;1.30;;;0.70;;
40953;SDS011;26686;50.130;8.710;2023-04-24T01:16:17;2.75;;;0.65;;
40953;SDS011;26686;50.130;8.710;2023-04-24T01:21:23;0.98;;;0.45;;
40953;SDS011;26686;50.130;8.710;2023-04-24T01:26:29;2.45;;;0.40;;
40953;SDS011;26686;50.130;8.710;2023-04-24T01:31:31;1.52;;;0.60;;
40953;SDS011;26686;50.130;8.710;2023-04-24T01:36:33;2.25;;;0.45;;
40953;SDS011;26686;50.130;8.710;2023-04-24T01:41:36;1.67;;;0.45;;
40953;SDS011;26686;50.130;8.710;2023-04-24T01:46:39;1.38;;;0.40;;
40953;SDS011;26686;50.130;8.710;2023-04-24T01:51:41;0.50;;;0.30;;
40953;SDS011;26686;50.130;8.710;2023-04-24T01:56:42;4.03;;;0.82;;
40953;SDS011;26686;50.130;8.710;2023-04-24T02:01:44;0.95;;;0.50;;
40953;SDS011;26686;50.130;8.710;2023-04-24T02:06:46;1.77;;;0.55;;
40953;SDS011;26686;50.130;8.710;2023-04-24T02:11:48;1.20;;;0.52;;
40953;SDS011;26686;50.130;8.710;2023-04-24T02:16:49;1.38;;;0.50;;
40953;SDS011;26686;50.130;8.710;2023-04-24T02:21:50;4.25;;;0.70;;
40953;SDS011;26686;50.130;8.710;2023-04-24T02:26:53;1.20;;;0.60;;
40953;SDS011;26686;50.130;8.710;2023-04-24T02:31:54;1.63;;;0.65;;
40953;SDS011;26686;50.130;8.710;2023-04-24T02:36:56;2.45;;;0.80;;
40953;SDS011;26686;50.130;8.710;2023-04-24T02:41:57;1.45;;;0.45;;
40953;SDS011;26686;50.130;8.710;2023-04-24T02:46:59;1.98;;;0.50;;
40953;SDS011;26686;50.130;8.710;2023-04-24T02:52:01;1.55;;;0.65;;
40953;SDS011;26686;50.130;8.710;2023-04-24T02:57:02;3.00;;;0.50;;
40953;SDS011;26686;50.130;8.710;2023-04-24T03:02:04;1.80;;;0.50;;
40953;SDS011;26686;50.130;8.710;2023-04-24T03:07:07;1.48;;;0.70;;
40953;SDS011;26686;50.130;8.710;2023-04-24T03:12:08;3.47;;;0.50;;
40953;SDS011;26686;50.130;8.710;2023-04-24T03:17:10;2.38;;;0.50;;
40953;SDS011;26686;50.130;8.710;2023-04-24T03:22:12;1.48;;;0.45;;
40953;SDS011;26686;50.130;8.710;2023-04-24T03:27:13;2.20;;;0.60;;
40953;SDS011;26686;50.130;8.710;2023-04-24T03:32:15;1.00;;;0.30;;
40953;SDS011;26686;50.130;8.710;2023-04-24T03:37:17;1.77;;;0.70;;
40953;SDS011;26686;50.130;8.710;2023-04-24T03:42:18;3.08;;;0.60;;
40953;SDS011;26686;50.130;8.710;2023-04-24T03:47:20;2.55;;;0.57;;
40953;SDS011;26686;50.130;8.710;2023-04-24T03:52:22;1.08;;;0.47;;
40953;SDS011;26686;50.130;8.710;2023-04-24T03:57:24;1.00;;;0.40;;
40953;SDS011;26686;50.130;8.710;2023-04-24T04:02:26;1.55;;;0.50;;
40953;SDS011;26686;50.130;8.710;2023-04-24T04:07:28;1.23;;;0.50;;
40953;SDS011;26686;50.130;8.710;2023-04-24T04:12:31;1.35;;;0.57;;
40953;SDS011;26686;50.130;8.710;2023-04-24T04:17:33;1.95;;;0.65;;
40953;SDS011;26686;50.130;8.710;2023-04-24T04:22:35;1.38;;;0.40;;
40953;SDS011;26686;50.130;8.710;2023-04-24T04:27:39;1.05;;;0.60;;
40953;SDS011;26686;50.130;8.710;2023-04-24T04:32:42;1.70;;;0.50;;
40953;SDS011;26686;50.130;8.710;2023-04-24T04:37:45;1.23;;;0.70;;
40953;SDS011;26686;50.130;8.710;2023-04-24T04:42:46;1.42;;;0.75;;
40953;SDS011;26686;50.130;8.710;2023-04-24T04:47:49;1.08;;;0.60;;
40953;SDS011;26686;50.130;8.710;2023-04-24T04:52:50;1.08;;;0.70;;
40953;SDS011;26686;50.130;8.710;2023-04-24T04:57:52;1.10;;;0.60;;
40953;SDS011;26686;50.130;8.710;2023-04-24T05:02:54;2.08;;;1.20;;
40953;SDS011;26686;50.130;8.710;2023-04-24T05:08:09;1.13;;;0.98;;
40953;SDS011;26686;50.130;8.710;2023-04-24T05:13:27;1.27;;;0.88;;
40953;SDS011;26686;50.130;8.710;2023-04-24T05:18:40;1.83;;;1.10;;
40953;SDS011;26686;50.130;8.710;2023-04-24T05:23:42;0.93;;;0.85;;
40953;SDS011;26686;50.130;8.710;2023-04-24T05:28:43;1.13;;;1.02;;
40953;SDS011;26686;50.130;8.710;2023-04-24T05:33:45;1.85;;;0.98;;
40953;SDS011;26686;50.130;8.710;2023-04-24T05:38:47;2.92;;;1.63;;
40953;SDS011;26686;50.130;8.710;2023-04-24T05:43:49;1.52;;;1.15;;
40953;SDS011;26686;50.130;8.710;2023-04-24T05:48:50;1.88;;;1.20;;
40953;SDS011;26686;50.130;8.710;2023-04-24T05:53:53;2.35;;;1.50;;
40953;SDS011;26686;50.130;8.710;2023-04-24T05:58:55;3.05;;;1.83;;
40953;SDS011;26686;50.130;8.710;2023-04-24T06:03:58;1.73;;;1.60;;
40953;SDS011;26686;50.130;8.710;2023-04-24T06:09:00;2.38;;;1.70;;
40953;SDS011;26686;50.130;8.710;2023-04-24T06:14:02;3.47;;;1.58;;
40953;SDS011;26686;50.130;8.710;2023-04-24T06:19:03;2.40;;;1.88;;
40953;SDS011;26686;50.130;8.710;2023-04-24T06:24:06;2.25;;;1.58;;
40953;SDS011;26686;50.130;8.710;2023-04-24T06:29:08;2.63;;;2.42;;
40953;SDS011;26686;50.130;8.710;2023-04-24T06:34:09;2.78;;;2.30;;
40953;SDS011;26686;50.130;8.710;2023-04-24T06:39:12;2.33;;;1.70;;
40953;SDS011;26686;50.130;8.710;2023-04-24T06:44:14;2.30;;;2.10;;
40953;SDS011;26686;50.130;8.710;2023-04-24T06:49:18;3.00;;;2.10;;
40953;SDS011;26686;50.130;8.710;2023-04-24T06:54:19;2.78;;;2.58;;
40953;SDS011;26686;50.130;8.710;2023-04-24T06:59:21;4.03;;;2.38;;
40953;SDS011;26686;50.130;8.710;2023-04-24T07:04:23;3.33;;;2.08;;
40953;SDS011;26686;50.130;8.710;2023-04-24T07:09:26;2.38;;;1.95;;
40953;SDS011;26686;50.130;8.710;2023-04-24T07:14:28;1.92;;;1.83;;
40953;SDS011;26686;50.130;8.710;2023-04-24T07:19:31;3.63;;;2.38;;
40953;SDS011;26686;50.130;8.710;2023-04-24T07:24:35;3.45;;;2.53;;
40953;SDS011;26686;50.130;8.710;2023-04-24T07:29:37;3.88;;;2.72;;
40953;SDS011;26686;50.130;8.710;2023-04-24T07:34:39;3.70;;;3.35;;
40953;SDS011;26686;50.130;8.710;2023-04-24T07:39:41;2.90;;;2.25;;
40953;SDS011;26686;50.130;8.710;2023-04-24T07:44:43;2.95;;;2.28;;
40953;SDS011;26686;50.130;8.710;2023-04-24T07:49:45;1.85;;;1.75;;
40953;SDS011;26686;50.130;8.710;2023-04-24T07:54:49;2.78;;;2.08;;
40953;SDS011;26686;50.130;8.710;2023-04-24T07:59:51;2.30;;;1.95;;
40953;SDS011;26686;50.130;8.710;2023-04-24T08:04:52;3.80;;;2.28;;
40953;SDS011;26686;50.130;8.710;2023-04-24T08:10:00;2.13;;;1.83;;
40953;SDS011;26686;50.130;8.710;2023-04-24T08:15:03;2.58;;;2.35;;
40953;SDS011;26686;50.130;8.710;2023-04-24T08:20:05;3.85;;;2.10;;
40953;SDS011;26686;50.130;8.710;2023-04-24T08:25:07;4.03;;;2.10;;
40953;SDS011;26686;50.130;8.710;2023-04-24T08:30:09;4.28;;;2.30;;
40953;SDS011;26686;50.130;8.710;2023-04-24T08:35:11;2.33;;;2.05;;
40953;SDS011;26686;50.130;8.710;2023-04-24T08:40:14;2.15;;;1.75;;
40953;SDS011;26686;50.130;8.710;2023-04-24T08:45:18;4.22;;;2.30;;
40953;SDS011;26686;50.130;8.710;2023-04-24T08:50:20;3.80;;;2.17;;
40953;SDS011;26686;50.130;8.710;2023-04-24T08:55:23;2.13;;;1.92;;
40953;SDS011;26686;50.130;8.710;2023-04-24T09:00:26;1.95;;;1.55;;
40953;SDS011;26686;50.130;8.710;2023-04-24T09:05:28;1.92;;;1.70;;
40953;SDS011;26686;50.130;8.710;2023-04-24T09:10:31;2.97;;;1.80;;
40953;SDS011;26686;50.130;8.710;2023-04-24T09:15:32;3.05;;;1.95;;
40953;SDS011;26686;50.130;8.710;2023-04-24T09:20:56;3.33;;;1.55;;
40953;SDS011;26686;50.130;8.710;2023-04-24T09:26:04;2.38;;;1.55;;
40953;SDS011;26686;50.130;8.710;2023-04-24T09:31:11;1.75;;;1.30;;
40953;SDS011;26686;50.130;8.710;2023-04-24T09:36:15;2.47;;;1.95;;
40953;SDS011;26686;50.130;8.710;2023-04-24T09:41:18;2.67;;;1.63;;
40953;SDS011;26686;50.130;8.710;2023-04-24T09:46:19;4.15;;;1.88;;
40953;SDS011;26686;50.130;8.710;2023-04-24T09:51:35;2.72;;;1.88;;
40953;SDS011;26686;50.130;8.710;2023-04-24T09:56:41;3.08;;;1.80;;
40953;SDS011;26686;50.130;8.710;2023-04-24T10:01:45;2.53;;;1.77;;
40953;SDS011;26686;50.130;8.710;2023-04-24T10:06:48;3.25;;;1.80;;
40953;SDS011;26686;50.130;8.710;2023-04-24T10:11:51;2.85;;;2.05;;
40953;SDS011;26686;50.130;8.710;2023-04-24T10:16:54;1.63;;;1.37;;
40953;SDS011;26686;50.130;8.710;2023-04-24T10:21:59;1.83;;;1.55;;
40953;SDS011;26686;50.130;8.710;2023-04-24T10:27:02;2.03;;;1.30;;
40953;SDS011;26686;50.130;8.710;2023-04-24T10:32:06;2.50;;;1.30;;
40953;SDS011;26686;50.130;8.710;2023-04-24T10:37:08;2.47;;;1.40;;
40953;SDS011;26686;50.130;8.710;2023-04-24T10:42:16;3.97;;;1.30;;
40953;SDS011;26686;50.130;8.710;2023-04-24T10:47:18;1.80;;;1.60;;
40953;SDS011;26686;50.130;8.710;2023-04-24T10:52:19;3.40;;;1.70;;
40953;SDS011;26686;50.130;8.710;2023-04-24T10:57:28;3.42;;;1.80;;
40953;SDS011;26686;50.130;8.710;2023-04-24T11:02:40;2.88;;;1.90;;
40953;SDS011;26686;50.130;8.710;2023-04-24T11:13:17;3.38;;;2.05;;
40953;SDS011;26686;50.130;8.710;2023-04-24T11:18:23;3.42;;;1.20;;
40953;SDS011;26686;50.130;8.710;2023-04-24T11:23:24;1.13;;;0.77;;
40953;SDS011;26686;50.130;8.710;2023-04-24T11:28:27;2.78;;;0.90;;
40953;SDS011;26686;50.130;8.710;2023-04-24T11:33:29;1.85;;;0.88;;
40953;SDS011;26686;50.130;8.710;2023-04-24T11:38:32;0.90;;;0.60;;
40953;SDS011;26686;50.130;8.710;2023-04-24T11:43:34;2.00;;;0.80;;
40953;SDS011;26686;50.130;8.710;2023-04-24T11:48:36;2.33;;;1.05;;
40953;SDS011;26686;50.130;8.710;2023-04-24T11:53:41;1.02;;;0.80;;
40953;SDS011;26686;50.130;8.710;2023-04-24T11:58:44;0.82;;;0.70;;
40953;SDS011;26686;50.130;8.710;2023-04-24T12:03:49;1.15;;;0.50;;
40953;SDS011;26686;50.130;8.710;2023-04-24T12:08:52;1.77;;;0.75;;
40953;SDS011;26686;50.130;8.710;2023-04-24T12:14:11;1.70;;;1.38;;
40953;SDS011;26686;50.130;8.710;2023-04-24T12:19:17;2.65;;;1.50;;
40953;SDS011;26686;50.130;8.710;2023-04-24T12:24:23;2.60;;;1.20;;
40953;SDS011;26686;50.130;8.710;2023-04-24T12:29:24;1.67;;;0.75;;
40953;SDS011;26686;50.130;8.710;2023-04-24T12:34:26;1.50;;;0.80;;
40953;SDS011;26686;50.130;8.710;2023-04-24T12:39:28;5.15;;;0.88;;
40953;SDS011;26686;50.130;8.710;2023-04-24T12:44:33;1.45;;;1.05;;
40953;SDS011;26686;50.130;8.710;2023-04-24T12:49:36;1.63;;;1.00;;
40953;SDS011;26686;50.130;8.710;2023-04-24T12:54:37;2.42;;;1.75;;
40953;SDS011;26686;50.130;8.710;2023-04-24T12:59:39;2.03;;;1.83;;
40953;SDS011;26686;50.130;8.710;2023-04-24T13:04:46;1.92;;;1.50;;
40953;SDS011;26686;50.130;8.710;2023-04-24T13:09:48;3.95;;;2.30;;
40953;SDS011;26686;50.130;8.710;2023-04-24T13:14:53;3.55;;;2.15;;
40953;SDS011;26686;50.130;8.710;2023-04-24T13:19:55;3.05;;;2.13;;
40953;SDS011;26686;50.130;8.710;2023-04-24T13:24:57;3.72;;;2.17;;
40953;SDS011;26686;50.130;8.710;2023-04-24T13:29:58;3.38;;;2.10;;
40953;SDS011;26686;50.130;8.710;2023-04-24T13:35:01;2.83;;;1.77;;
40953;SDS011;26686;50.130;8.710;2023-04-24T13:40:03;3.25;;;1.85;;
40953;SDS011;26686;50.130;8.710;2023-04-24T13:45:07;2.28;;;1.77;;
40953;SDS011;26686;50.130;8.710;2023-04-24T13:50:25;1.63;;;1.40;;
40953;SDS011;26686;50.130;8.710;2023-04-24T13:55:27;3.97;;;2.65;;
40953;SDS011;26686;50.130;8.710;2023-04-24T14:00:28;3.33;;;2.50;;
40953;SDS011;26686;50.130;8.710;2023-04-24T14:05:30;2.85;;;2.60;;
40953;SDS011;26686;50.130;8.710;2023-04-24T14:10:31;2.53;;;2.22;;
40953;SDS011;26686;50.130;8.710;2023-04-24T14:15:33;3.63;;;2.30;;
40953;SDS011;26686;50.130;8.710;2023-04-24T14:20:37;2.53;;;2.33;;
40953;SDS011;26686;50.130;8.710;2023-04-24T14:25:38;2.58;;;2.28;;
40953;SDS011;26686;50.130;8.710;2023-04-24T14:30:40;2.33;;;2.13;;
40953;SDS011;26686;50.130;8.710;2023-04-24T14:35:42;4.00;;;2.40;;
40953;SDS011;26686;50.130;8.710;2023-04-24T14:40:44;2.80;;;2.53;;
40953;SDS011;26686;50.130;8.710;2023-04-24T14:46:06;3.47;;;1.83;;
40953;SDS011;26686;50.130;8.710;2023-04-24T14:51:07;2.85;;;2.10;;
40953;SDS011;26686;50.130;8.710;2023-04-24T14:56:09;7.75;;;2.58;;
40953;SDS011;26686;50.130;8.710;2023-04-24T15:01:11;5.53;;;2.80;;
40953;SDS011;26686;50.130;8.710;2023-04-24T15:06:12;3.78;;;2.88;;
40953;SDS011;26686;50.130;8.710;2023-04-24T15:11:14;4.38;;;2.90;;
40953;SDS011;26686;50.130;8.710;2023-04-24T15:16:15;2.70;;;2.50;;
40953;SDS011;26686;50.130;8.710;2023-04-24T15:21:17;3.28;;;2.33;;
40953;SDS011;26686;50.130;8.710;2023-04-24T15:26:18;3.88;;;2.85;;
40953;SDS011;26686;50.130;8.710;2023-04-24T15:31:21;6.00;;;2.78;;
40953;SDS011;26686;50.130;8.710;2023-04-24T15:36:24;3.28;;;2.40;;
40953;SDS011;26686;50.130;8.710;2023-04-24T15:41:25;3.42;;;2.22;;
40953;SDS011;26686;50.130;8.710;2023-04-24T15:46:27;4.45;;;2.70;;
40953;SDS011;26686;50.130;8.710;2023-04-24T15:51:29;3.97;;;2.63;;
40953;SDS011;26686;50.130;8.710;2023-04-24T15:56:32;3.70;;;2.90;;
40953;SDS011;26686;50.130;8.710;2023-04-24T16:01:34;3.80;;;2.97;;
40953;SDS011;26686;50.130;8.710;2023-04-24T16:06:35;3.58;;;2.97;;
40953;SDS011;26686;50.130;8.710;2023-04-24T16:11:37;3.78;;;2.70;;
40953;SDS011;26686;50.130;8.710;2023-04-24T16:16:39;3.03;;;2.70;;
40953;SDS011;26686;50.130;8.710;2023-04-24T16:21:41;3.00;;;2.63;;
40953;SDS011;26686;50.130;8.710;2023-04-24T16:26:43;4.18;;;3.15;;
40953;SDS011;26686;50.130;8.710;2023-04-24T16:31:45;5.97;;;2.70;;
40953;SDS011;26686;50.130;8.710;2023-04-24T16:36:46;4.13;;;2.80;;
40953;SDS011;26686;50.130;8.710;2023-04-24T16:41:48;4.05;;;2.72;;
40953;SDS011;26686;50.130;8.710;2023-04-24T16:46:50;2.88;;;2.25;;
40953;SDS011;26686;50.130;8.710;2023-04-24T16:51:52;4.07;;;2.85;;
40953;SDS011;26686;50.130;8.710;2023-04-24T16:56:53;3.95;;;3.10;;
40953;SDS011;26686;50.130;8.710;2023-04-24T17:01:55;3.75;;;3.20;;
40953;SDS011;26686;50.130;8.710;2023-04-24T17:06:57;2.80;;;2.50;;
40953;SDS011;26686;50.130;8.710;2023-04-24T17:11:59;3.50;;;3.08;;
40953;SDS011;26686;50.130;8.710;2023-04-24T17:17:02;4.20;;;2.95;;
40953;SDS011;26686;50.130;8.710;2023-04-24T17:22:04;3.65;;;2.95;;
40953;SDS011;26686;50.130;8.710;2023-04-24T17:27:06;3.63;;;2.85;;
40953;SDS011;26686;50.130;8.710;2023-04-24T17:32:15;3.45;;;3.00;;
40953;SDS011;26686;50.130;8.710;2023-04-24T17:37:17;3.97;;;2.90;;
40953;SDS011;26686;50.130;8.710;2023-04-24T17:42:23;2.80;;;2.60;;
40953;SDS011;26686;50.130;8.710;2023-04-24T17:47:24;3.35;;;3.00;;
40953;SDS011;26686;50.130;8.710;2023-04-24T17:52:27;4.32;;;2.80;;
40953;SDS011;26686;50.130;8.710;2023-04-24T17:57:29;3.13;;;2.45;;
40953;SDS011;26686;50.130;8.710;2023-04-24T18:02:30;2.65;;;2.15;;
40953;SDS011;26686;50.130;8.710;2023-04-24T18:07:32;3.85;;;2.90;;
40953;SDS011;26686;50.130;8.710;2023-04-24T18:12:34;4.10;;;2.70;;
40953;SDS011;26686;50.130;8.710;2023-04-24T18:17:35;3.25;;;2.95;;
40953;SDS011;26686;50.130;8.710;2023-04-24T18:22:37;3.88;;;2.78;;
40953;SDS011;26686;50.130;8.710;2023-04-24T18:27:39;3.55;;;2.55;;
40953;SDS011;26686;50.130;8.710;2023-04-24T18:32:42;2.10;;;1.90;;
40953;SDS011;26686;50.130;8.710;2023-04-24T18:37:44;2.78;;;2.45;;
40953;SDS011;26686;50.130;8.710;2023-04-24T18:42:46;3.92;;;2.60;;
40953;SDS011;26686;50.130;8.710;2023-04-24T18:47:48;3.33;;;2.90;;
40953;SDS011;26686;50.130;8.710;2023-04-24T18:52:51;3.40;;;2.90;;
40953;SDS011;26686;50.130;8.710;2023-04-24T18:57:52;4.32;;;3.60;;
40953;SDS011;26686;50.130;8.710;2023-04-24T19:02:54;5.00;;;3.10;;
40953;SDS011;26686;50.130;8.710;2023-04-24T19:07:58;5.38;;;3.72;;
40953;SDS011;26686;50.130;8.710;2023-04-24T19:13:01;4.05;;;3.67;;
40953;SDS011;26686;50.130;8.710;2023-04-24T19:18:03;3.53;;;3.22;;
40953;SDS011;26686;50.130;8.710;2023-04-24T19:23:07;2.63;;;2.05;;
40953;SDS011;26686;50.130;8.710;2023-04-24T19:28:09;2.78;;;2.03;;
40953;SDS011;26686;50.130;8.710;2023-04-24T19:33:10;2.05;;;1.70;;
40953;SDS011;26686;50.130;8.710;2023-04-24T19:38:13;1.75;;;1.45;;
40953;SDS011;26686;50.130;8.710;2023-04-24T19:43:15;2.05;;;1.85;;
40953;SDS011;26686;50.130;8.710;2023-04-24T19:48:16;2.10;;;1.90;;
40953;SDS011;26686;50.130;8.710;2023-04-24T19:53:18;2.28;;;1.73;;
40953;SDS011;26686;50.130;8.710;2023-04-24T19:58:20;5.43;;;2.78;;
40953;SDS011;26686;50.130;8.710;2023-04-24T20:03:21;2.13;;;1.92;;
40953;SDS011;26686;50.130;8.710;2023-04-24T20:08:33;3.40;;;2.50;;
40953;SDS011;26686;50.130;8.710;2023-04-24T20:13:38;3.10;;;2.20;;
40953;SDS011;26686;50.130;8.710;2023-04-24T20:18:40;2.40;;;2.20;;
40953;SDS011;26686;50.130;8.710;2023-04-24T20:23:42;2.00;;;1.83;;
40953;SDS011;26686;50.130;8.710;2023-04-24T20:28:43;2.20;;;2.00;;
40953;SDS011;26686;50.130;8.710;2023-04-24T20:33:45;2.97;;;1.70;;
40953;SDS011;26686;50.130;8.710;2023-04-24T20:38:46;2.15;;;1.95;;
40953;SDS011;26686;50.130;8.710;2023-04-24T20:43:48;2.80;;;2.45;;
40953;SDS011;26686;50.130;8.710;2023-04-24T20:48:50;2.90;;;2.63;;
40953;SDS011;26686;50.130;8.710;2023-04-24T20:53:52;2.90;;;2.70;;
40953;SDS011;26686;50.130;8.710;2023-04-24T20:58:54;3.00;;;2.70;;
40953;SDS011;26686;50.130;8.710;2023-04-24T21:03:57;3.37;;;2.87;;
40953;SDS011;26686;50.130;8.710;2023-04-24T21:09:00;3.78;;;3.47;;
40953;SDS011;26686;50.130;8.710;2023-04-24T21:14:02;3.92;;;3.45;;
40953;SDS011;26686;50.130;8.710;2023-04-24T21:19:03;5.18;;;3.60;;
40953;SDS011;26686;50.130;8.710;2023-04-24T21:24:08;5.45;;;4.35;;
40953;SDS011;26686;50.130;8.710;2023-04-24T21:29:10;4.22;;;3.88;;
40953;SDS011;26686;50.130;8.710;2023-04-24T21:34:12;4.47;;;4.07;;
40953;SDS011;26686;50.130;8.710;2023-04-24T21:39:13;6.90;;;4.90;;
40953;SDS011;26686;50.130;8.710;2023-04-24T21:44:15;5.05;;;4.60;;
40953;SDS011;26686;50.130;8.710;2023-04-24T21:49:17;6.15;;;5.55;;
40953;SDS011;26686;50.130;8.710;2023-04-24T21:54:18;4.28;;;3.75;;
40953;SDS011;26686;50.130;8.710;2023-04-24T21:59:20;3.88;;;3.58;;
40953;SDS011;26686;50.130;8.710;2023-04-24T22:04:22;3.95;;;3.50;;
40953;SDS011;26686;50.130;8.710;2023-04-24T22:09:24;3.80;;;3.50;;
40953;SDS011;26686;50.130;8.710;2023-04-24T22:14:25;4.38;;;3.97;;
40953;SDS011;26686;50.130;8.710;2023-04-24T22:19:27;4.93;;;4.07;;
40953;SDS011;26686;50.130;8.710;2023-04-24T22:24:28;4.78;;;4.38;;
40953;SDS011;26686;50.130;8.710;2023-04-24T22:29:30;5.22;;;4.72;;
40953;SDS011;26686;50.130;8.710;2023-04-24T22:34:32;5.53;;;5.03;;
40953;SDS011;26686;50.130;8.710;2023-04-24T22:39:34;4.97;;;4.50;;
40953;SDS011;26686;50.130;8.710;2023-04-24T22:44:35;7.25;;;5.57;;
40953;SDS011;26686;50.130;8.710;2023-04-24T22:49:37;6.50;;;5.63;;
40953;SDS011;26686;50.130;8.710;2023-04-24T22:54:40;6.50;;;5.50;;
40953;SDS011;26686;50.130;8.710;2023-04-24T22:59:42;6.20;;;5.47;;
40953;SDS011;26686;50.130;8.710;2023-04-24T23:04:44;7.30;;;5.72;;
40953;SDS011;26686;50.130;8.710;2023-04-24T23:09:45;7.28;;;6.53;;
40953;SDS011;26686;50.130;8.710;2023-04-24T23:14:47;7.55;;;6.75;;
40953;SDS011;26686;50.130;8.710;2023-04-24T23:19:48;5.85;;;5.30;;
40953;SDS011;26686;50.130;8.710;2023-04-24T23:24:50;6.28;;;5.53;;
40953;SDS011;26686;50.130;8.710;2023-04-24T23:29:51;6.75;;;6.15;;
40953;SDS011;26686;50.130;8.710;2023-04-24T23:34:53;6.32;;;5.50;;
40953;SDS011;26686;50.130;8.710;2023-04-24T23:39:54;7.85;;;5.80;;
40953;SDS011;26686;50.130;8.710;2023-04-24T23:44:56;5.45;;;4.90;;
40953;SDS011;26686;50.130;8.710;2023-04-24T23:49:58;6.35;;;5.75;;
40953;SDS011;26686;50.130;8.710;2023-04-24T23:55:00;5.55;;;5.05;;
